sensor_id;sensor_type;location;lat;lon;timestamp;pressure;altitude;pressure_sealevel;temperature;humidity
49030;BME280;43337;52.070;4.508;2023-03-04T00:00:53;102904.50;;;5.70;100.00
49030;BME280;43337;52.070;4.508;2023-03-04T00:03:18;102912.34;;;5.70;100.00
49030;BME280;43337;52.070;4.508;2023-03-04T00:05:43;102913.22;;;5.72;100.00
49030;BME280;43337;52.070;4.508;2023-03-04T00:08:09;102900.94;;;5.61;100.00
49030;BME280;43337;52.070;4.508;2023-03-04T00:10:34;102893.94;;;5.59;100.00
49030;BME280;43337;52.070;4.508;2023-03-04T00:13:00;102918.41;;;5.67;100.00
49030;BME280;43337;52.070;4.508;2023-03-04T00:15:25;102908.78;;;5.63;100.00
49030;BME280;43337;52.070;4.508;2023-03-04T00:17:50;102912.31;;;5.67;100.00
49030;BME280;43337;52.070;4.508;2023-03-04T00:20:16;102909.66;;;5.63;100.00
49030;BME280;43337;52.070;4.508;2023-03-04T00:22:41;102916.66;;;5.68;100.00
49030;BME280;43337;52.070;4.508;2023-03-04T00:25:07;102903.53;;;5.60;100.00
49030;BME280;43337;52.070;4.508;2023-03-04T00:27:32;102891.28;;;5.54;100.00
49030;BME280;43337;52.070;4.508;2023-03-04T00:29:58;102909.69;;;5.68;100.00
49030;BME280;43337;52.070;4.508;2023-03-04T00:32:23;102904.34;;;5.56;100.00
49030;BME280;43337;52.070;4.508;2023-03-04T00:34:48;102888.66;;;5.54;100.00
49030;BME280;43337;52.070;4.508;2023-03-04T00:37:14;102904.44;;;5.63;100.00
49030;BME280;43337;52.070;4.508;2023-03-04T00:39:39;102917.53;;;5.68;100.00
49030;BME280;43337;52.070;4.508;2023-03-04T00:42:05;102909.69;;;5.68;100.00
49030;BME280;43337;52.070;4.508;2023-03-04T00:44:30;102911.41;;;5.63;100.00
49030;BME280;43337;52.070;4.508;2023-03-04T00:46:55;102908.75;;;5.60;100.00
49030;BME280;43337;52.070;4.508;2023-03-04T00:49:21;102879.00;;;5.49;100.00
49030;BME280;43337;52.070;4.508;2023-03-04T00:51:46;102902.59;;;5.55;100.00
49030;BME280;43337;52.070;4.508;2023-03-04T00:54:12;102900.88;;;5.55;100.00
49030;BME280;43337;52.070;4.508;2023-03-04T00:56:37;102916.63;;;5.63;100.00
49030;BME280;43337;52.070;4.508;2023-03-04T00:59:03;102885.19;;;5.54;100.00
49030;BME280;43337;52.070;4.508;2023-03-04T01:01:28;102895.63;;;5.57;100.00
49030;BME280;43337;52.070;4.508;2023-03-04T01:03:54;102907.88;;;5.61;100.00
49030;BME280;43337;52.070;4.508;2023-03-04T01:06:19;102908.78;;;5.61;100.00
49030;BME280;43337;52.070;4.508;2023-03-04T01:08:45;102892.97;;;5.52;100.00
49030;BME280;43337;52.070;4.508;2023-03-04T01:11:10;102908.75;;;5.60;100.00
49030;BME280;43337;52.070;4.508;2023-03-04T01:13:36;102905.25;;;5.61;100.00
49030;BME280;43337;52.070;4.508;2023-03-04T01:16:01;102914.88;;;5.62;100.00
49030;BME280;43337;52.070;4.508;2023-03-04T01:18:28;102910.50;;;5.61;100.00
49030;BME280;43337;52.070;4.508;2023-03-04T01:20:53;102898.25;;;5.57;100.00
49030;BME280;43337;52.070;4.508;2023-03-04T01:23:19;102905.25;;;5.61;100.00
49030;BME280;43337;52.070;4.508;2023-03-04T01:25:44;102897.44;;;5.61;100.00
49030;BME280;43337;52.070;4.508;2023-03-04T01:28:09;102899.16;;;5.60;100.00
49030;BME280;43337;52.070;4.508;2023-03-04T01:30:35;102878.16;;;5.51;100.00
49030;BME280;43337;52.070;4.508;2023-03-04T01:33:01;102879.09;;;5.56;100.00
49030;BME280;43337;52.070;4.508;2023-03-04T01:35:26;102862.50;;;5.51;100.00
49030;BME280;43337;52.070;4.508;2023-03-04T01:37:52;102878.19;;;5.53;100.00
49030;BME280;43337;52.070;4.508;2023-03-04T01:40:17;102873.03;;;5.59;100.00
49030;BME280;43337;52.070;4.508;2023-03-04T01:42:43;102877.34;;;5.54;100.00
49030;BME280;43337;52.070;4.508;2023-03-04T01:45:13;102853.69;;;5.43;100.00
49030;BME280;43337;52.070;4.508;2023-03-04T01:47:40;102875.66;;;5.59;100.00
49030;BME280;43337;52.070;4.508;2023-03-04T01:50:31;102859.88;;;5.50;100.00
49030;BME280;43337;52.070;4.508;2023-03-04T01:52:57;102861.63;;;5.51;100.00
49030;BME280;43337;52.070;4.508;2023-03-04T01:55:23;102873.03;;;5.60;100.00
49030;BME280;43337;52.070;4.508;2023-03-04T01:57:50;102854.66;;;5.51;100.00
49030;BME280;43337;52.070;4.508;2023-03-04T02:00:30;102869.56;;;5.60;100.00
49030;BME280;43337;52.070;4.508;2023-03-04T02:02:59;102859.09;;;5.58;100.00
49030;BME280;43337;52.070;4.508;2023-03-04T02:05:25;102853.00;;;5.58;100.00
49030;BME280;43337;52.070;4.508;2023-03-04T02:07:51;102858.22;;;5.58;100.00
49030;BME280;43337;52.070;4.508;2023-03-04T02:10:18;102854.75;;;5.57;100.00
49030;BME280;43337;52.070;4.508;2023-03-04T02:12:44;102840.69;;;5.46;100.00
49030;BME280;43337;52.070;4.508;2023-03-04T02:15:10;102831.94;;;5.44;100.00
49030;BME280;43337;52.070;4.508;2023-03-04T02:17:36;102843.38;;;5.54;100.00
49030;BME280;43337;52.070;4.508;2023-03-04T02:20:11;102831.94;;;5.46;100.00
49030;BME280;43337;52.070;4.508;2023-03-04T02:22:48;102832.84;;;5.46;100.00
49030;BME280;43337;52.070;4.508;2023-03-04T02:25:21;102841.59;;;5.50;100.00
49030;BME280;43337;52.070;4.508;2023-03-04T02:27:48;102825.78;;;5.39;100.00
49030;BME280;43337;52.070;4.508;2023-03-04T02:30:13;102817.91;;;5.37;100.00
49030;BME280;43337;52.070;4.508;2023-03-04T02:32:40;102823.22;;;5.44;100.00
49030;BME280;43337;52.070;4.508;2023-03-04T02:35:13;102827.59;;;5.43;100.00
49030;BME280;43337;52.070;4.508;2023-03-04T02:37:40;102831.06;;;5.45;100.00
49030;BME280;43337;52.070;4.508;2023-03-04T02:40:12;102830.19;;;5.45;100.00
49030;BME280;43337;52.070;4.508;2023-03-04T02:42:38;102807.47;;;5.37;100.00
49030;BME280;43337;52.070;4.508;2023-03-04T02:45:04;102778.63;;;5.24;100.00
49030;BME280;43337;52.070;4.508;2023-03-04T02:47:30;102815.41;;;5.45;100.00
49030;BME280;43337;52.070;4.508;2023-03-04T02:49:55;102800.56;;;5.41;100.00
49030;BME280;43337;52.070;4.508;2023-03-04T02:52:22;102809.22;;;5.37;100.00
49030;BME280;43337;52.070;4.508;2023-03-04T02:54:48;102794.38;;;5.33;100.00
49030;BME280;43337;52.070;4.508;2023-03-04T02:57:14;102817.09;;;5.42;100.00
49030;BME280;43337;52.070;4.508;2023-03-04T02:59:41;102812.78;;;5.44;100.00
49030;BME280;43337;52.070;4.508;2023-03-04T03:02:07;102811.00;;;5.41;100.00
49030;BME280;43337;52.070;4.508;2023-03-04T03:04:35;102791.75;;;5.33;100.00
49030;BME280;43337;52.070;4.508;2023-03-04T03:07:00;102810.16;;;5.44;100.00
49030;BME280;43337;52.070;4.508;2023-03-04T03:09:26;102796.13;;;5.34;100.00
49030;BME280;43337;52.070;4.508;2023-03-04T03:11:51;102793.53;;;5.35;100.00
49030;BME280;43337;52.070;4.508;2023-03-04T03:14:17;102790.91;;;5.34;100.00
49030;BME280;43337;52.070;4.508;2023-03-04T03:16:42;102798.78;;;5.37;100.00
49030;BME280;43337;52.070;4.508;2023-03-04T03:19:07;102778.66;;;5.28;100.00
49030;BME280;43337;52.070;4.508;2023-03-04T03:21:33;102803.94;;;5.34;100.00
49030;BME280;43337;52.070;4.508;2023-03-04T03:23:58;102804.88;;;5.37;100.00
49030;BME280;43337;52.070;4.508;2023-03-04T03:26:24;102803.94;;;5.34;100.00
49030;BME280;43337;52.070;4.508;2023-03-04T03:28:49;102801.38;;;5.35;100.00
49030;BME280;43337;52.070;4.508;2023-03-04T03:31:14;102814.47;;;5.38;100.00
49030;BME280;43337;52.070;4.508;2023-03-04T03:33:40;102804.00;;;5.35;100.00
49030;BME280;43337;52.070;4.508;2023-03-04T03:36:06;102796.13;;;5.34;100.00
49030;BME280;43337;52.070;4.508;2023-03-04T03:38:32;102799.63;;;5.36;100.00
49030;BME280;43337;52.070;4.508;2023-03-04T03:40:58;102783.84;;;5.24;100.00
49030;BME280;43337;52.070;4.508;2023-03-04T03:43:23;102792.59;;;5.30;100.00
49030;BME280;43337;52.070;4.508;2023-03-04T03:45:49;102799.63;;;5.36;100.00
49030;BME280;43337;52.070;4.508;2023-03-04T03:48:16;102809.25;;;5.38;100.00
49030;BME280;43337;52.070;4.508;2023-03-04T03:50:41;102795.25;;;5.32;100.00
49030;BME280;43337;52.070;4.508;2023-03-04T03:53:06;102802.22;;;5.31;100.00
49030;BME280;43337;52.070;4.508;2023-03-04T03:55:32;102811.81;;;5.35;100.00
49030;BME280;43337;52.070;4.508;2023-03-04T03:57:57;102821.41;;;5.38;100.00
49030;BME280;43337;52.070;4.508;2023-03-04T04:00:23;102814.47;;;5.38;100.00
49030;BME280;43337;52.070;4.508;2023-03-04T04:02:48;102801.38;;;5.35;100.00
49030;BME280;43337;52.070;4.508;2023-03-04T04:05:14;102805.69;;;5.32;100.00
49030;BME280;43337;52.070;4.508;2023-03-04T04:07:39;102796.06;;;5.28;100.00
49030;BME280;43337;52.070;4.508;2023-03-04T04:10:06;102814.44;;;5.37;100.00
49030;BME280;43337;52.070;4.508;2023-03-04T04:12:31;102793.41;;;5.25;100.00
49030;BME280;43337;52.070;4.508;2023-03-04T04:14:57;102810.03;;;5.31;100.00
49030;BME280;43337;52.070;4.508;2023-03-04T04:17:22;102803.94;;;5.34;100.00
49030;BME280;43337;52.070;4.508;2023-03-04T04:19:48;102796.03;;;5.25;100.00
49030;BME280;43337;52.070;4.508;2023-03-04T04:22:16;102815.25;;;5.31;100.00
49030;BME280;43337;52.070;4.508;2023-03-04T04:24:42;102815.25;;;5.31;100.00
49030;BME280;43337;52.070;4.508;2023-03-04T04:27:08;102807.38;;;5.27;100.00
49030;BME280;43337;52.070;4.508;2023-03-04T04:29:34;102808.25;;;5.30;100.00
49030;BME280;43337;52.070;4.508;2023-03-04T04:31:59;102810.00;;;5.28;100.00
49030;BME280;43337;52.070;4.508;2023-03-04T04:34:25;102786.28;;;5.10;100.00
49030;BME280;43337;52.070;4.508;2023-03-04T04:36:50;102793.34;;;5.19;100.00
49030;BME280;43337;52.070;4.508;2023-03-04T04:39:16;102811.75;;;5.28;100.00
49030;BME280;43337;52.070;4.508;2023-03-04T04:41:43;102811.69;;;5.26;100.00
49030;BME280;43337;52.070;4.508;2023-03-04T04:44:09;102790.72;;;5.17;100.00
49030;BME280;43337;52.070;4.508;2023-03-04T04:46:35;102798.56;;;5.17;100.00
49030;BME280;43337;52.070;4.508;2023-03-04T04:49:01;102798.56;;;5.19;100.00
49030;BME280;43337;52.070;4.508;2023-03-04T04:51:26;102780.19;;;5.09;100.00
49030;BME280;43337;52.070;4.508;2023-03-04T04:53:52;102788.03;;;5.11;100.00
49030;BME280;43337;52.070;4.508;2023-03-04T04:56:20;102805.59;;;5.24;100.00
49030;BME280;43337;52.070;4.508;2023-03-04T04:58:47;102788.06;;;5.14;100.00
49030;BME280;43337;52.070;4.508;2023-03-04T05:01:13;102788.94;;;5.13;100.00
49030;BME280;43337;52.070;4.508;2023-03-04T05:03:39;102809.97;;;5.25;100.00
49030;BME280;43337;52.070;4.508;2023-03-04T05:06:07;102801.16;;;5.16;100.00
49030;BME280;43337;52.070;4.508;2023-03-04T05:08:33;102818.66;;;5.24;100.00
49030;BME280;43337;52.070;4.508;2023-03-04T05:10:59;102802.91;;;5.17;100.00
49030;BME280;43337;52.070;4.508;2023-03-04T05:13:25;102803.81;;;5.20;100.00
49030;BME280;43337;52.070;4.508;2023-03-04T05:15:54;102795.03;;;5.13;100.00
49030;BME280;43337;52.070;4.508;2023-03-04T05:18:21;102818.66;;;5.24;100.00
49030;BME280;43337;52.070;4.508;2023-03-04T05:20:56;102809.03;;;5.20;100.00
49030;BME280;43337;52.070;4.508;2023-03-04T05:23:22;102813.44;;;5.23;100.00
49030;BME280;43337;52.070;4.508;2023-03-04T05:25:47;102810.75;;;5.18;100.00
49030;BME280;43337;52.070;4.508;2023-03-04T05:28:14;102819.50;;;5.22;100.00
49030;BME280;43337;52.070;4.508;2023-03-04T05:30:40;102812.53;;;5.21;100.00
49030;BME280;43337;52.070;4.508;2023-03-04T05:33:07;102818.63;;;5.21;100.00
49030;BME280;43337;52.070;4.508;2023-03-04T05:35:37;102794.06;;;5.05;100.00
49030;BME280;43337;52.070;4.508;2023-03-04T05:38:04;102816.88;;;5.20;100.00
49030;BME280;43337;52.070;4.508;2023-03-04T05:40:31;102795.84;;;5.09;100.00
49030;BME280;43337;52.070;4.508;2023-03-04T05:42:56;102816.88;;;5.22;100.00
49030;BME280;43337;52.070;4.508;2023-03-04T05:45:23;102799.44;;;5.18;100.00
49030;BME280;43337;52.070;4.508;2023-03-04T05:47:48;102805.59;;;5.23;100.00
49030;BME280;43337;52.070;4.508;2023-03-04T05:50:14;102803.00;;;5.24;100.00
49030;BME280;43337;52.070;4.508;2023-03-04T05:52:39;102797.78;;;5.24;100.00
49030;BME280;43337;52.070;4.508;2023-03-04T05:55:05;102802.09;;;5.22;100.00
49030;BME280;43337;52.070;4.508;2023-03-04T05:57:30;102801.16;;;5.19;100.00
49030;BME280;43337;52.070;4.508;2023-03-04T05:59:56;102788.09;;;5.17;100.00
49030;BME280;43337;52.070;4.508;2023-03-04T06:02:21;102785.50;;;5.16;100.00
49030;BME280;43337;52.070;4.508;2023-03-04T06:04:46;102780.19;;;5.08;100.00
49030;BME280;43337;52.070;4.508;2023-03-04T06:07:12;102774.09;;;5.09;100.00
49030;BME280;43337;52.070;4.508;2023-03-04T06:09:37;102779.31;;;5.07;100.00
49030;BME280;43337;52.070;4.508;2023-03-04T06:12:03;102814.31;;;5.25;100.00
49030;BME280;43337;52.070;4.508;2023-03-04T06:14:28;102805.59;;;5.23;100.00
49030;BME280;43337;52.070;4.508;2023-03-04T06:16:54;102768.78;;;5.00;100.00
49030;BME280;43337;52.070;4.508;2023-03-04T06:19:19;102778.44;;;5.08;100.00
49030;BME280;43337;52.070;4.508;2023-03-04T06:21:45;102788.00;;;5.08;100.00
49030;BME280;43337;52.070;4.508;2023-03-04T06:24:11;102788.88;;;5.08;100.00
49030;BME280;43337;52.070;4.508;2023-03-04T06:26:36;102794.16;;;5.13;100.00
49030;BME280;43337;52.070;4.508;2023-03-04T06:29:03;102809.88;;;5.18;100.00
49030;BME280;43337;52.070;4.508;2023-03-04T06:31:28;102802.91;;;5.15;100.00
49030;BME280;43337;52.070;4.508;2023-03-04T06:33:54;102784.53;;;5.07;100.00
49030;BME280;43337;52.070;4.508;2023-03-04T06:36:19;102798.47;;;5.08;100.00
49030;BME280;43337;52.070;4.508;2023-03-04T06:38:44;102797.63;;;5.12;100.00
49030;BME280;43337;52.070;4.508;2023-03-04T06:41:11;102791.47;;;5.07;100.00
49030;BME280;43337;52.070;4.508;2023-03-04T06:43:37;102816.84;;;5.19;100.00
49030;BME280;43337;52.070;4.508;2023-03-04T06:46:04;102812.44;;;5.14;100.00
49030;BME280;43337;52.070;4.508;2023-03-04T06:48:29;102816.91;;;5.23;100.00
49030;BME280;43337;52.070;4.508;2023-03-04T06:50:55;102809.00;;;5.19;100.00
49030;BME280;43337;52.070;4.508;2023-03-04T06:53:20;102824.75;;;5.23;100.00
49030;BME280;43337;52.070;4.508;2023-03-04T06:55:46;102804.59;;;5.14;100.00
49030;BME280;43337;52.070;4.508;2023-03-04T06:58:12;102820.34;;;5.21;100.00
49030;BME280;43337;52.070;4.508;2023-03-04T07:00:37;102794.19;;;5.16;100.00
49030;BME280;43337;52.070;4.508;2023-03-04T07:03:02;102813.44;;;5.26;100.00
49030;BME280;43337;52.070;4.508;2023-03-04T07:05:28;102826.53;;;5.30;100.00
49030;BME280;43337;52.070;4.508;2023-03-04T07:07:53;102831.81;;;5.32;100.00
49030;BME280;43337;52.070;4.508;2023-03-04T07:10:19;102842.31;;;5.38;100.00
49030;BME280;43337;52.070;4.508;2023-03-04T07:12:44;102844.03;;;5.37;100.00
49030;BME280;43337;52.070;4.508;2023-03-04T07:15:10;102823.88;;;5.26;100.00
49030;BME280;43337;52.070;4.508;2023-03-04T07:17:36;102827.41;;;5.29;100.00
49030;BME280;43337;52.070;4.508;2023-03-04T07:20:02;102825.66;;;5.28;100.00
49030;BME280;43337;52.070;4.508;2023-03-04T07:22:27;102832.69;;;5.32;100.00
49030;BME280;43337;52.070;4.508;2023-03-04T07:24:53;102823.94;;;5.27;100.00
49030;BME280;43337;52.070;4.508;2023-03-04T07:27:18;102824.75;;;5.25;100.00
49030;BME280;43337;52.070;4.508;2023-03-04T07:29:43;102827.38;;;5.25;100.00
49030;BME280;43337;52.070;4.508;2023-03-04T07:32:09;102829.94;;;5.20;100.00
49030;BME280;43337;52.070;4.508;2023-03-04T07:34:35;102842.25;;;5.33;100.00
49030;BME280;43337;52.070;4.508;2023-03-04T07:37:00;102828.22;;;5.24;100.00
49030;BME280;43337;52.070;4.508;2023-03-04T07:39:26;102829.97;;;5.25;100.00
49030;BME280;43337;52.070;4.508;2023-03-04T07:41:51;102821.22;;;5.20;100.00
49030;BME280;43337;52.070;4.508;2023-03-04T07:44:17;102818.66;;;5.23;100.00
49030;BME280;43337;52.070;4.508;2023-03-04T07:46:42;102854.66;;;5.50;100.00
49030;BME280;43337;52.070;4.508;2023-03-04T07:49:09;102845.03;;;5.49;100.00
49030;BME280;43337;52.070;4.508;2023-03-04T07:51:35;102845.94;;;5.51;100.00
49030;BME280;43337;52.070;4.508;2023-03-04T07:54:01;102854.81;;;5.65;100.00
49030;BME280;43337;52.070;4.508;2023-03-04T07:56:30;102862.75;;;5.74;100.00
49030;BME280;43337;52.070;4.508;2023-03-04T07:58:56;102876.72;;;5.79;100.00
49030;BME280;43337;52.070;4.508;2023-03-04T08:01:30;102863.66;;;5.78;100.00
49030;BME280;43337;52.070;4.508;2023-03-04T08:03:56;102870.69;;;5.85;100.00
49030;BME280;43337;52.070;4.508;2023-03-04T08:06:22;102874.22;;;5.88;100.00
49030;BME280;43337;52.070;4.508;2023-03-04T08:08:49;102856.88;;;5.94;100.00
49030;BME280;43337;52.070;4.508;2023-03-04T08:11:20;102869.13;;;6.02;100.00
49030;BME280;43337;52.070;4.508;2023-03-04T08:13:46;102859.53;;;6.01;100.00
49030;BME280;43337;52.070;4.508;2023-03-04T08:16:13;102865.72;;;6.11;100.00
49030;BME280;43337;52.070;4.508;2023-03-04T08:18:41;102859.66;;;6.12;100.00
49030;BME280;43337;52.070;4.508;2023-03-04T08:21:08;102867.53;;;6.18;100.00
49030;BME280;43337;52.070;4.508;2023-03-04T08:23:34;102855.22;;;6.06;100.00
49030;BME280;43337;52.070;4.508;2023-03-04T08:26:05;102867.56;;;6.21;100.00
49030;BME280;43337;52.070;4.508;2023-03-04T08:28:30;102860.56;;;6.16;100.00
49030;BME280;43337;52.070;4.508;2023-03-04T08:30:55;102872.81;;;6.24;100.00
49030;BME280;43337;52.070;4.508;2023-03-04T08:33:21;102865.94;;;6.35;100.00
49030;BME280;43337;52.070;4.508;2023-03-04T08:35:46;102865.16;;;6.46;100.00
49030;BME280;43337;52.070;4.508;2023-03-04T08:38:12;102853.75;;;6.41;100.00
49030;BME280;43337;52.070;4.508;2023-03-04T08:40:37;102852.94;;;6.46;100.00
49030;BME280;43337;52.070;4.508;2023-03-04T08:43:02;102865.16;;;6.47;100.00
49030;BME280;43337;52.070;4.508;2023-03-04T08:45:28;102868.63;;;6.43;100.00
49030;BME280;43337;52.070;4.508;2023-03-04T08:47:53;102847.56;;;6.28;100.00
49030;BME280;43337;52.070;4.508;2023-03-04T08:50:19;102855.41;;;6.29;100.00
49030;BME280;43337;52.070;4.508;2023-03-04T08:52:44;102868.59;;;6.39;100.00
49030;BME280;43337;52.070;4.508;2023-03-04T08:55:09;102858.09;;;6.35;100.00
49030;BME280;43337;52.070;4.508;2023-03-04T08:57:35;102856.34;;;6.36;100.00
49030;BME280;43337;52.070;4.508;2023-03-04T09:00:00;102847.63;;;6.37;100.00
49030;BME280;43337;52.070;4.508;2023-03-04T09:02:25;102845.97;;;6.48;100.00
49030;BME280;43337;52.070;4.508;2023-03-04T09:04:51;102829.41;;;6.51;100.00
49030;BME280;43337;52.070;4.508;2023-03-04T09:07:16;102852.25;;;6.73;100.00
49030;BME280;43337;52.070;4.508;2023-03-04T09:09:42;102849.66;;;6.82;100.00
49030;BME280;43337;52.070;4.508;2023-03-04T09:12:07;102858.44;;;6.91;100.00
49030;BME280;43337;52.070;4.508;2023-03-04T09:14:33;102846.19;;;6.87;100.00
49030;BME280;43337;52.070;4.508;2023-03-04T09:17:01;102827.81;;;6.74;100.00
49030;BME280;43337;52.070;4.508;2023-03-04T09:19:26;102839.22;;;6.92;100.00
49030;BME280;43337;52.070;4.508;2023-03-04T09:21:52;102829.66;;;6.94;100.00
49030;BME280;43337;52.070;4.508;2023-03-04T09:24:20;102847.22;;;7.16;100.00
49030;BME280;43337;52.070;4.508;2023-03-04T09:26:49;102830.66;;;7.19;100.00
49030;BME280;43337;52.070;4.508;2023-03-04T09:29:14;102821.91;;;7.24;100.00
49030;BME280;43337;52.070;4.508;2023-03-04T09:31:40;102846.44;;;7.43;100.00
49030;BME280;43337;52.070;4.508;2023-03-04T09:34:05;102828.06;;;7.36;100.00
49030;BME280;43337;52.070;4.508;2023-03-04T09:36:30;102822.81;;;7.31;100.00
49030;BME280;43337;52.070;4.508;2023-03-04T09:39:00;102846.47;;;7.51;100.00
49030;BME280;43337;52.070;4.508;2023-03-04T09:43:58;102828.13;;;7.54;100.00
49030;BME280;43337;52.070;4.508;2023-03-04T09:46:36;102835.13;;;7.61;100.00
49030;BME280;43337;52.070;4.508;2023-03-04T09:49:03;102836.00;;;7.63;100.00
49030;BME280;43337;52.070;4.508;2023-03-04T09:51:46;102841.25;;;7.72;100.00
49030;BME280;43337;52.070;4.508;2023-03-04T09:57:22;102831.63;;;7.64;100.00
49030;BME280;43337;52.070;4.508;2023-03-04T09:59:59;102842.13;;;7.70;100.00
49030;BME280;43337;52.070;4.508;2023-03-04T10:02:44;102835.97;;;7.65;100.00
49030;BME280;43337;52.070;4.508;2023-03-04T10:05:20;102847.38;;;7.71;100.00
49030;BME280;43337;52.070;4.508;2023-03-04T10:07:59;102849.97;;;7.71;100.00
49030;BME280;43337;52.070;4.508;2023-03-04T10:10:32;102836.00;;;7.68;100.00
49030;BME280;43337;52.070;4.508;2023-03-04T10:13:00;102846.50;;;7.75;100.00
49030;BME280;43337;52.070;4.508;2023-03-04T10:15:37;102839.50;;;7.64;100.00
49030;BME280;43337;52.070;4.508;2023-03-04T10:21:19;102852.59;;;7.67;100.00
49030;BME280;43337;52.070;4.508;2023-03-04T10:23:45;102838.63;;;7.75;100.00
49030;BME280;43337;52.070;4.508;2023-03-04T10:26:14;102835.16;;;7.76;100.00
49030;BME280;43337;52.070;4.508;2023-03-04T10:28:41;102840.41;;;7.98;100.00
49030;BME280;43337;52.070;4.508;2023-03-04T10:33:39;102828.19;;;8.15;100.00
49030;BME280;43337;52.070;4.508;2023-03-04T10:38:52;102828.13;;;8.60;100.00
49030;BME280;43337;52.070;4.508;2023-03-04T10:41:20;102832.47;;;8.77;100.00
49030;BME280;43337;52.070;4.508;2023-03-04T10:46:39;102812.31;;;8.86;100.00
49030;BME280;43337;52.070;4.508;2023-03-04T10:49:05;102814.03;;;8.94;100.00
49030;BME280;43337;52.070;4.508;2023-03-04T10:51:31;102814.00;;;8.99;100.00
49030;BME280;43337;52.070;4.508;2023-03-04T10:55:02;102826.25;;;9.08;100.00
49030;BME280;43337;52.070;4.508;2023-03-04T10:57:20;102821.84;;;9.07;100.00
49030;BME280;43337;52.070;4.508;2023-03-04T10:59:59;102813.16;;;8.94;100.00
49030;BME280;43337;52.070;4.508;2023-03-04T11:02:28;102799.19;;;8.86;100.00
49030;BME280;43337;52.070;4.508;2023-03-04T11:05:22;102813.22;;;8.77;100.00
49030;BME280;43337;52.070;4.508;2023-03-04T11:07:53;102827.28;;;8.65;100.00
49030;BME280;43337;52.070;4.508;2023-03-04T11:10:29;102821.19;;;8.46;100.00
49030;BME280;43337;52.070;4.508;2023-03-04T11:13:11;102814.19;;;8.39;100.00
49030;BME280;43337;52.070;4.508;2023-03-04T11:15:50;102808.91;;;8.38;100.00
49030;BME280;43337;52.070;4.508;2023-03-04T11:18:21;102816.78;;;8.45;100.00
49030;BME280;43337;52.070;4.508;2023-03-04T11:20:48;102793.16;;;8.48;100.00
49030;BME280;43337;52.070;4.508;2023-03-04T11:23:42;102817.63;;;8.64;100.00
49030;BME280;43337;52.070;4.508;2023-03-04T11:26:14;102802.72;;;8.68;100.00
49030;BME280;43337;52.070;4.508;2023-03-04T11:31:31;102799.16;;;8.87;100.00
49030;BME280;43337;52.070;4.508;2023-03-04T11:34:06;102797.41;;;8.86;100.00
49030;BME280;43337;52.070;4.508;2023-03-04T11:37:03;102799.16;;;8.92;100.00
49030;BME280;43337;52.070;4.508;2023-03-04T11:39:37;102792.13;;;8.98;100.00
49030;BME280;43337;52.070;4.508;2023-03-04T11:42:19;102803.47;;;9.02;100.00
49030;BME280;43337;52.070;4.508;2023-03-04T11:44:45;102790.38;;;9.00;100.00
49030;BME280;43337;52.070;4.508;2023-03-04T11:52:50;102794.03;;;8.52;100.00
49030;BME280;43337;52.070;4.508;2023-03-04T11:55:24;102805.44;;;8.40;100.00
49030;BME280;43337;52.070;4.508;2023-03-04T12:00:50;102785.31;;;8.08;100.00
49030;BME280;43337;52.070;4.508;2023-03-04T12:03:24;102799.31;;;8.09;100.00
49030;BME280;43337;52.070;4.508;2023-03-04T12:11:52;102787.94;;;7.95;100.00
49030;BME280;43337;52.070;4.508;2023-03-04T12:14:01;102762.59;;;8.00;100.00
49030;BME280;43337;52.070;4.508;2023-03-04T12:25:05;102769.53;;;8.54;100.00
49030;BME280;43337;52.070;4.508;2023-03-04T12:32:52;102762.53;;;8.44;100.00
49030;BME280;43337;52.070;4.508;2023-03-04T12:35:23;102758.16;;;8.45;100.00
49030;BME280;43337;52.070;4.508;2023-03-04T12:40:37;102747.69;;;8.49;100.00
49030;BME280;43337;52.070;4.508;2023-03-04T12:48:30;102737.06;;;8.74;100.00
49030;BME280;43337;52.070;4.508;2023-03-04T12:55:47;102730.75;;;9.15;100.00
49030;BME280;43337;52.070;4.508;2023-03-04T12:58:32;102729.84;;;9.14;100.00
49030;BME280;43337;52.070;4.508;2023-03-04T13:06:13;102719.13;;;9.45;100.00
49030;BME280;43337;52.070;4.508;2023-03-04T13:08:48;102722.59;;;9.50;100.00
49030;BME280;43337;52.070;4.508;2023-03-04T13:16:39;102714.53;;;9.71;100.00
49030;BME280;43337;52.070;4.508;2023-03-04T13:21:49;102712.84;;;9.63;100.00
49030;BME280;43337;52.070;4.508;2023-03-04T13:27:38;102712.09;;;9.50;100.00
49030;BME280;43337;52.070;4.508;2023-03-04T13:29:47;102708.59;;;9.45;100.00
49030;BME280;43337;52.070;4.508;2023-03-04T13:32:12;102715.63;;;9.41;100.00
49030;BME280;43337;52.070;4.508;2023-03-04T13:34:57;102696.44;;;9.32;100.00
49030;BME280;43337;52.070;4.508;2023-03-04T13:40:22;102707.84;;;9.31;100.00
49030;BME280;43337;52.070;4.508;2023-03-04T13:42:37;102705.28;;;9.21;100.00
49030;BME280;43337;52.070;4.508;2023-03-04T13:45:03;102702.72;;;9.12;100.00
49030;BME280;43337;52.070;4.508;2023-03-04T13:47:46;102702.72;;;9.09;100.00
49030;BME280;43337;52.070;4.508;2023-03-04T13:50:23;102694.84;;;9.09;100.00
49030;BME280;43337;52.070;4.508;2023-03-04T13:52:49;102704.47;;;9.15;100.00
49030;BME280;43337;52.070;4.508;2023-03-04T13:55:32;102698.28;;;9.17;100.00
49030;BME280;43337;52.070;4.508;2023-03-04T13:57:58;102686.88;;;9.18;100.00
49030;BME280;43337;52.070;4.508;2023-03-04T14:00:24;102694.78;;;9.18;100.00
49030;BME280;43337;52.070;4.508;2023-03-04T14:02:50;102691.28;;;9.18;100.00
49030;BME280;43337;52.070;4.508;2023-03-04T14:05:15;102686.88;;;9.23;100.00
49030;BME280;43337;52.070;4.508;2023-03-04T14:07:40;102687.72;;;9.28;100.00
49030;BME280;43337;52.070;4.508;2023-03-04T14:10:17;102691.19;;;9.35;100.00
49030;BME280;43337;52.070;4.508;2023-03-04T14:12:54;102682.41;;;9.36;100.00